Time;durP1;ratioP1;P1;durP2;ratioP2;P2;SDS_P1;SDS_P2;PMS_P1;PMS_P2;Temp;Humidity;BMP_temperature;BMP_pressure;BME280_temperature;BME280_humidity;BME280_pressure;Samples;Min_cycle;Max_cycle;Signal;HPM_P1;HPM_P2
2023/08/09 00:01:17;;;;;;;4.72;2.13;;;;;;;;;;4916111;29;20023;-77
2023/08/09 00:03:43;;;;;;;4.97;2.30;;;;;;;;;;4913615;29;20039;-76
2023/08/09 00:06:08;;;;;;;7.00;2.75;;;;;;;;;;4915879;29;20186;-77
2023/08/09 00:08:34;;;;;;;5.93;2.50;;;;;;;;;;4916182;29;20477;-76
2023/08/09 00:10:59;;;;;;;6.28;2.40;;;;;;;;;;4915731;29;20107;-76
2023/08/09 00:13:25;;;;;;;6.00;2.20;;;;;;;;;;4915635;29;20036;-76
2023/08/09 00:15:50;;;;;;;5.28;2.22;;;;;;;;;;4915592;29;20024;-76
2023/08/09 00:18:16;;;;;;;5.05;1.90;;;;;;;;;;4916182;29;20063;-77
2023/08/09 00:20:41;;;;;;;3.55;2.05;;;;;;;;;;4915877;29;20028;-76
2023/08/09 00:23:06;;;;;;;4.22;2.10;;;;;;;;;;4915947;29;20024;-76
2023/08/09 00:25:33;;;;;;;4.93;2.10;;;;;;;;;;4916114;29;20042;-76
2023/08/09 00:27:59;;;;;;;3.17;1.88;;;;;;;;;;4915456;29;20040;-77
2023/08/09 00:30:24;;;;;;;4.57;2.00;;;;;;;;;;4915696;29;20103;-77
2023/08/09 00:32:50;;;;;;;4.60;2.00;;;;;;;;;;4915675;29;20056;-76
2023/08/09 00:35:15;;;;;;;6.47;2.03;;;;;;;;;;4915459;29;20520;-77
2023/08/09 00:37:40;;;;;;;5.55;1.83;;;;;;;;;;4915667;29;20032;-77
2023/08/09 00:40:07;;;;;;;4.38;1.70;;;;;;;;;;4915718;29;20090;-76
2023/08/09 00:42:33;;;;;;;3.42;1.90;;;;;;;;;;4907897;29;20028;-77
2023/08/09 00:44:58;;;;;;;4.95;1.90;;;;;;;;;;4915230;29;20504;-76
2023/08/09 00:47:24;;;;;;;5.90;1.80;;;;;;;;;;4921102;29;20032;-76
2023/08/09 00:49:50;;;;;;;5.72;2.00;;;;;;;;;;4914177;29;20071;-76
2023/08/09 00:52:16;;;;;;;6.78;2.00;;;;;;;;;;4907071;29;20028;-77
2023/08/09 00:54:42;;;;;;;5.15;1.90;;;;;;;;;;4914530;29;20057;-77
2023/08/09 00:57:08;;;;;;;3.15;1.73;;;;;;;;;;4915316;29;20628;-77
2023/08/09 00:59:33;;;;;;;6.82;2.00;;;;;;;;;;4914816;29;20095;-77
2023/08/09 01:01:59;;;;;;;3.08;1.73;;;;;;;;;;4914613;29;20111;-76
2023/08/09 01:04:24;;;;;;;3.40;1.80;;;;;;;;;;4915182;29;20028;-77
2023/08/09 01:07:17;;;;;;;5.05;1.70;;;;;;;;;;4914662;29;20051;-77
2023/08/09 01:10:28;;;;;;;4.63;1.90;;;;;;;;;;4914770;29;20031;-77
2023/08/09 01:13:01;;;;;;;4.72;1.90;;;;;;;;;;4912194;29;20037;-77
2023/08/09 01:15:27;;;;;;;5.38;1.80;;;;;;;;;;4914681;29;20028;-78
2023/08/09 01:17:54;;;;;;;5.95;1.90;;;;;;;;;;4914464;29;20083;-77
2023/08/09 01:20:21;;;;;;;6.63;2.00;;;;;;;;;;4915108;29;20047;-78
2023/08/09 01:22:59;;;;;;;4.45;1.98;;;;;;;;;;4914774;29;20039;-77
2023/08/09 01:25:25;;;;;;;4.82;2.08;;;;;;;;;;4914860;29;20020;-77
2023/08/09 01:27:52;;;;;;;6.15;1.90;;;;;;;;;;4914348;29;20095;-77
2023/08/09 01:30:17;;;;;;;5.85;2.30;;;;;;;;;;4914479;29;20028;-78
2023/08/09 01:32:43;;;;;;;4.18;1.88;;;;;;;;;;4914468;29;20481;-78
2023/08/09 01:35:09;;;;;;;5.35;2.00;;;;;;;;;;4914538;29;20036;-77
2023/08/09 01:37:52;;;;;;;4.22;1.90;;;;;;;;;;4914574;29;20024;-77
2023/08/09 01:40:18;;;;;;;7.10;2.20;;;;;;;;;;4914555;29;20104;-77
2023/08/09 01:42:44;;;;;;;4.82;2.13;;;;;;;;;;4913806;29;20119;-78
2023/08/09 01:45:12;;;;;;;4.45;1.90;;;;;;;;;;4914388;29;20044;-78
2023/08/09 01:47:40;;;;;;;3.85;2.00;;;;;;;;;;4914114;29;20028;-78
2023/08/09 01:50:15;;;;;;;4.75;1.92;;;;;;;;;;4914240;29;20035;-77
2023/08/09 01:52:41;;;;;;;5.97;2.00;;;;;;;;;;4913913;29;20036;-77
2023/08/09 01:55:06;;;;;;;3.97;2.17;;;;;;;;;;4914305;29;20115;-77
2023/08/09 01:57:31;;;;;;;4.75;2.00;;;;;;;;;;4913847;29;20123;-77
2023/08/09 01:59:57;;;;;;;5.95;2.13;;;;;;;;;;4913914;29;20111;-77
2023/08/09 02:02:22;;;;;;;3.35;1.92;;;;;;;;;;4913621;29;20130;-76
2023/08/09 02:04:48;;;;;;;4.57;2.20;;;;;;;;;;4913606;29;20032;-77
2023/08/09 02:07:14;;;;;;;7.18;1.98;;;;;;;;;;4914214;29;20031;-77
2023/08/09 02:09:39;;;;;;;5.03;2.10;;;;;;;;;;4913904;29;20038;-78
2023/08/09 02:12:05;;;;;;;3.85;2.03;;;;;;;;;;4913693;29;20043;-77
2023/08/09 02:14:30;;;;;;;5.55;2.17;;;;;;;;;;4913640;29;20032;-77
2023/08/09 02:16:55;;;;;;;5.78;2.10;;;;;;;;;;4913550;29;20028;-78
2023/08/09 02:19:21;;;;;;;4.68;2.13;;;;;;;;;;4913434;29;20388;-78
2023/08/09 02:21:46;;;;;;;4.30;2.10;;;;;;;;;;4913678;29;20028;-77
2023/08/09 02:24:11;;;;;;;6.68;2.10;;;;;;;;;;4913817;29;20032;-77
2023/08/09 02:26:40;;;;;;;5.47;1.90;;;;;;;;;;4913513;29;20134;-78
2023/08/09 02:29:06;;;;;;;3.90;2.08;;;;;;;;;;4913665;29;20024;-77
2023/08/09 02:31:31;;;;;;;3.80;1.90;;;;;;;;;;4912501;29;20042;-77
2023/08/09 02:33:57;;;;;;;4.03;1.90;;;;;;;;;;4912265;29;20083;-77
2023/08/09 02:36:23;;;;;;;5.38;1.85;;;;;;;;;;4913461;29;20055;-77
2023/08/09 02:38:49;;;;;;;5.72;1.92;;;;;;;;;;4911886;29;20134;-77
2023/08/09 02:41:14;;;;;;;4.43;1.90;;;;;;;;;;4913541;29;20110;-78
2023/08/09 02:43:40;;;;;;;4.70;1.98;;;;;;;;;;4913051;29;20481;-78
2023/08/09 02:46:05;;;;;;;4.22;1.80;;;;;;;;;;4913397;29;20152;-77
2023/08/09 02:48:30;;;;;;;5.22;1.70;;;;;;;;;;4913174;29;20493;-78
2023/08/09 02:50:56;;;;;;;4.20;1.70;;;;;;;;;;4913427;29;20028;-77
2023/08/09 02:53:26;;;;;;;4.00;1.80;;;;;;;;;;4913357;29;20029;-77
2023/08/09 02:55:52;;;;;;;5.90;1.85;;;;;;;;;;4913061;29;20055;-77
2023/08/09 02:58:17;;;;;;;3.15;1.60;;;;;;;;;;4913212;29;20067;-78
2023/08/09 03:00:42;;;;;;;3.55;1.55;;;;;;;;;;4913101;29;20119;-76
2023/08/09 03:03:08;;;;;;;4.45;1.90;;;;;;;;;;4913242;29;20028;-77
2023/08/09 03:05:34;;;;;;;5.38;1.80;;;;;;;;;;4913431;29;20124;-76
2023/08/09 03:07:59;;;;;;;7.97;1.73;;;;;;;;;;4911599;29;20388;-76
2023/08/09 03:10:25;;;;;;;3.53;1.70;;;;;;;;;;4911715;29;20492;-76
2023/08/09 03:12:50;;;;;;;4.55;1.70;;;;;;;;;;4911238;29;20028;-77
2023/08/09 03:15:16;;;;;;;8.07;1.63;;;;;;;;;;4916855;29;20442;-77
2023/08/09 03:17:42;;;;;;;4.03;1.75;;;;;;;;;;4916094;29;20047;-77
2023/08/09 03:20:10;;;;;;;3.30;1.63;;;;;;;;;;4917160;29;20504;-76
2023/08/09 03:22:35;;;;;;;3.35;1.65;;;;;;;;;;4916980;29;20028;-76
2023/08/09 03:25:01;;;;;;;5.95;1.90;;;;;;;;;;4917137;29;20071;-77
2023/08/09 03:27:26;;;;;;;4.03;1.80;;;;;;;;;;4913131;29;20032;-76
2023/08/09 03:29:51;;;;;;;2.45;1.60;;;;;;;;;;4916967;29;20068;-76
2023/08/09 03:32:17;;;;;;;3.10;1.85;;;;;;;;;;4916628;29;20036;-76
2023/08/09 03:34:42;;;;;;;5.25;1.90;;;;;;;;;;4917130;29;20099;-76
2023/08/09 03:37:07;;;;;;;5.28;2.13;;;;;;;;;;4916906;29;20393;-76
2023/08/09 03:39:33;;;;;;;3.20;1.98;;;;;;;;;;4916878;29;20060;-77
2023/08/09 03:41:58;;;;;;;2.95;1.70;;;;;;;;;;4916808;29;20234;-75
2023/08/09 03:44:23;;;;;;;3.80;1.75;;;;;;;;;;4916634;29;20071;-76
2023/08/09 03:46:49;;;;;;;4.00;1.75;;;;;;;;;;4915980;29;20031;-76
2023/08/09 03:49:14;;;;;;;4.38;1.73;;;;;;;;;;4916673;29;20517;-75
2023/08/09 03:51:39;;;;;;;3.90;1.80;;;;;;;;;;4915954;29;20039;-75
2023/08/09 03:54:05;;;;;;;6.13;1.90;;;;;;;;;;4916821;29;20043;-76
2023/08/09 03:56:30;;;;;;;3.35;1.77;;;;;;;;;;4916617;29;20024;-75
2023/08/09 03:58:56;;;;;;;3.00;1.70;;;;;;;;;;4915572;29;20032;-75
2023/08/09 04:01:22;;;;;;;3.08;1.77;;;;;;;;;;4923248;29;20043;-75
2023/08/09 04:03:47;;;;;;;4.05;1.90;;;;;;;;;;4916627;29;20052;-75
2023/08/09 04:06:13;;;;;;;5.60;2.00;;;;;;;;;;4915702;29;20055;-75
2023/08/09 04:08:38;;;;;;;6.82;1.85;;;;;;;;;;4916547;29;20032;-76
2023/08/09 04:11:07;;;;;;;4.07;1.70;;;;;;;;;;4917323;29;20036;-75
2023/08/09 04:13:32;;;;;;;5.72;1.90;;;;;;;;;;4918472;29;20032;-75
2023/08/09 04:15:58;;;;;;;5.13;2.00;;;;;;;;;;4916949;29;20041;-75
2023/08/09 04:18:23;;;;;;;3.05;1.80;;;;;;;;;;4914624;29;20055;-76
2023/08/09 04:20:50;;;;;;;6.57;1.90;;;;;;;;;;4914661;29;20040;-75
2023/08/09 04:23:17;;;;;;;3.80;1.80;;;;;;;;;;4915756;29;20032;-75
2023/08/09 04:25:43;;;;;;;3.25;1.80;;;;;;;;;;4916006;29;20107;-76
2023/08/09 04:28:08;;;;;;;3.53;1.80;;;;;;;;;;4915433;29;20107;-76
2023/08/09 04:30:35;;;;;;;3.85;1.80;;;;;;;;;;4915389;29;20056;-75
2023/08/09 04:33:03;;;;;;;4.70;1.90;;;;;;;;;;4914020;29;20111;-76
2023/08/09 04:35:29;;;;;;;4.35;2.08;;;;;;;;;;4915497;29;20032;-75
2023/08/09 04:37:55;;;;;;;3.20;1.80;;;;;;;;;;4914331;29;20063;-75
2023/08/09 04:40:20;;;;;;;5.60;2.10;;;;;;;;;;4913881;29;20385;-75
2023/08/09 04:42:47;;;;;;;3.47;1.60;;;;;;;;;;4915487;29;20027;-75
2023/08/09 04:45:13;;;;;;;4.65;2.00;;;;;;;;;;4914980;29;20028;-75
2023/08/09 04:47:39;;;;;;;5.05;1.80;;;;;;;;;;4914417;29;20031;-76
2023/08/09 04:50:05;;;;;;;3.85;1.80;;;;;;;;;;4913815;29;20832;-76
2023/08/09 04:52:33;;;;;;;4.63;1.88;;;;;;;;;;4913852;29;20064;-75
2023/08/09 04:54:58;;;;;;;7.40;2.35;;;;;;;;;;4914054;29;20024;-75
2023/08/09 04:57:23;;;;;;;4.38;1.85;;;;;;;;;;4913818;29;20038;-75
2023/08/09 04:59:49;;;;;;;2.95;1.77;;;;;;;;;;4913566;29;20107;-75
2023/08/09 05:02:14;;;;;;;5.13;1.83;;;;;;;;;;4913548;29;20039;-75
2023/08/09 05:04:40;;;;;;;4.75;2.00;;;;;;;;;;4916597;29;20032;-76
2023/08/09 05:07:05;;;;;;;8.15;2.10;;;;;;;;;;4913994;29;20042;-75
2023/08/09 05:09:31;;;;;;;3.83;1.95;;;;;;;;;;4915195;29;20036;-75
2023/08/09 05:11:58;;;;;;;6.20;2.05;;;;;;;;;;4915009;29;20088;-75
2023/08/09 05:14:24;;;;;;;7.72;2.10;;;;;;;;;;4920084;29;20024;-75
2023/08/09 05:16:49;;;;;;;5.20;1.80;;;;;;;;;;4913133;29;20034;-76
2023/08/09 05:19:14;;;;;;;6.10;1.80;;;;;;;;;;4914841;29;20059;-76
2023/08/09 05:21:40;;;;;;;4.22;2.10;;;;;;;;;;4914780;29;20043;-77
2023/08/09 05:24:06;;;;;;;4.20;1.70;;;;;;;;;;4914443;29;20524;-77
2023/08/09 05:26:31;;;;;;;5.60;2.00;;;;;;;;;;4913324;29;20369;-76
2023/08/09 05:28:56;;;;;;;4.93;1.90;;;;;;;;;;4913251;29;20579;-75
2023/08/09 05:31:21;;;;;;;4.25;1.70;;;;;;;;;;4912318;29;20363;-75
2023/08/09 05:33:47;;;;;;;4.15;1.80;;;;;;;;;;4914406;29;20048;-75
2023/08/09 05:36:12;;;;;;;4.20;2.00;;;;;;;;;;4915037;29;20036;-76
2023/08/09 05:38:37;;;;;;;4.60;1.90;;;;;;;;;;4914624;29;20024;-76
2023/08/09 05:41:03;;;;;;;4.65;2.05;;;;;;;;;;4913537;29;20032;-75
2023/08/09 05:43:28;;;;;;;5.93;2.03;;;;;;;;;;4915373;29;20040;-75
2023/08/09 05:45:53;;;;;;;4.97;2.13;;;;;;;;;;4913681;29;20119;-75
2023/08/09 05:48:19;;;;;;;5.40;2.17;;;;;;;;;;4914474;29;20043;-75
2023/08/09 05:50:44;;;;;;;3.30;1.80;;;;;;;;;;4914101;29;20028;-77
2023/08/09 05:53:10;;;;;;;5.78;1.85;;;;;;;;;;4912894;29;20512;-77
2023/08/09 05:55:36;;;;;;;3.38;1.75;;;;;;;;;;4914177;29;20508;-77
2023/08/09 05:58:03;;;;;;;7.93;1.70;;;;;;;;;;4914118;29;20477;-77
2023/08/09 06:00:28;;;;;;;4.65;1.90;;;;;;;;;;4911637;29;20035;-77
2023/08/09 06:02:53;;;;;;;5.57;2.15;;;;;;;;;;4913765;29;20039;-77
2023/08/09 06:05:22;;;;;;;8.15;1.85;;;;;;;;;;4914171;29;20036;-77
2023/08/09 06:07:47;;;;;;;5.82;1.77;;;;;;;;;;4911175;29;20401;-76
2023/08/09 06:10:13;;;;;;;4.78;1.85;;;;;;;;;;4908134;29;20486;-75
2023/08/09 06:12:38;;;;;;;5.45;1.80;;;;;;;;;;4912074;29;20087;-76
2023/08/09 06:15:04;;;;;;;3.03;1.58;;;;;;;;;;4913333;29;20028;-75
2023/08/09 06:17:29;;;;;;;3.88;1.70;;;;;;;;;;4913851;29;20041;-76
2023/08/09 06:19:55;;;;;;;3.28;1.40;;;;;;;;;;4915789;29;20400;-76
2023/08/09 06:22:20;;;;;;;4.57;1.70;;;;;;;;;;4913530;29;20456;-77
2023/08/09 06:24:45;;;;;;;5.28;1.55;;;;;;;;;;4912421;29;20507;-78
2023/08/09 06:27:10;;;;;;;4.38;1.80;;;;;;;;;;4911697;29;20032;-77
2023/08/09 06:29:36;;;;;;;3.60;1.60;;;;;;;;;;4912146;29;20044;-77
2023/08/09 06:32:01;;;;;;;2.72;1.50;;;;;;;;;;4915216;29;20059;-76
2023/08/09 06:34:27;;;;;;;4.07;1.40;;;;;;;;;;4912347;29;20051;-78
2023/08/09 06:36:53;;;;;;;3.80;1.70;;;;;;;;;;4913158;29;20060;-78
2023/08/09 06:39:19;;;;;;;4.32;1.60;;;;;;;;;;4904790;29;20086;-78
2023/08/09 06:41:44;;;;;;;3.45;1.50;;;;;;;;;;4912908;29;20524;-77
2023/08/09 06:44:10;;;;;;;3.55;1.52;;;;;;;;;;4913115;29;20408;-77
2023/08/09 06:46:35;;;;;;;5.53;1.52;;;;;;;;;;4912813;29;20028;-76
2023/08/09 06:49:00;;;;;;;5.93;1.50;;;;;;;;;;4913717;29;20086;-76
2023/08/09 06:51:26;;;;;;;3.00;1.50;;;;;;;;;;4912936;29;20036;-75
2023/08/09 06:53:51;;;;;;;4.03;1.30;;;;;;;;;;4914032;29;20159;-75
2023/08/09 06:56:16;;;;;;;3.78;1.65;;;;;;;;;;4911357;29;20167;-77
2023/08/09 06:58:42;;;;;;;5.10;1.65;;;;;;;;;;4913067;29;20488;-78
2023/08/09 07:01:09;;;;;;;3.67;1.60;;;;;;;;;;4911441;29;20111;-77
2023/08/09 07:03:35;;;;;;;4.28;1.70;;;;;;;;;;4912092;29;20602;-77
2023/08/09 07:06:02;;;;;;;5.40;1.70;;;;;;;;;;4913298;29;20032;-81
2023/08/09 07:08:27;;;;;;;4.45;1.60;;;;;;;;;;4911764;29;20032;-86
2023/08/09 07:10:52;;;;;;;3.55;1.65;;;;;;;;;;4911484;29;20123;-86
2023/08/09 07:13:18;;;;;;;4.20;1.67;;;;;;;;;;4913205;29;20039;-87
2023/08/09 07:15:43;;;;;;;4.55;1.65;;;;;;;;;;4911783;29;20091;-86
2023/08/09 07:18:09;;;;;;;4.65;1.77;;;;;;;;;;4913209;29;20032;-84
2023/08/09 07:20:34;;;;;;;5.63;1.50;;;;;;;;;;4911817;29;20028;-85
2023/08/09 07:23:00;;;;;;;3.28;1.70;;;;;;;;;;4913263;29;20500;-87
2023/08/09 07:25:25;;;;;;;3.38;1.80;;;;;;;;;;4911654;29;20501;-86
2023/08/09 07:27:51;;;;;;;4.35;1.88;;;;;;;;;;4914605;29;20425;-75
2023/08/09 07:30:17;;;;;;;5.03;1.90;;;;;;;;;;4910970;29;20036;-76
2023/08/09 07:32:43;;;;;;;4.50;1.60;;;;;;;;;;4911553;29;20024;-78
2023/08/09 07:35:10;;;;;;;5.25;2.10;;;;;;;;;;4910611;29;20087;-78
2023/08/09 07:37:37;;;;;;;4.15;1.80;;;;;;;;;;4911728;29;20036;-78
2023/08/09 07:40:04;;;;;;;4.50;1.77;;;;;;;;;;4911505;29;20028;-78
2023/08/09 07:42:29;;;;;;;4.55;1.75;;;;;;;;;;4911139;29;20025;-78
2023/08/09 07:44:55;;;;;;;4.10;1.88;;;;;;;;;;4910785;29;20084;-78
2023/08/09 07:47:20;;;;;;;5.53;2.00;;;;;;;;;;4910576;29;20405;-77
2023/08/09 07:49:45;;;;;;;3.13;1.77;;;;;;;;;;4911385;29;20030;-78
2023/08/09 07:52:11;;;;;;;2.55;1.70;;;;;;;;;;4912151;29;20043;-77
2023/08/09 07:54:37;;;;;;;4.30;2.00;;;;;;;;;;4911763;29;20134;-78
2023/08/09 07:57:02;;;;;;;2.67;1.75;;;;;;;;;;4911333;29;20031;-77
2023/08/09 07:59:27;;;;;;;3.35;1.73;;;;;;;;;;4912471;29;20028;-77
2023/08/09 08:01:53;;;;;;;4.55;1.83;;;;;;;;;;4911321;29;20020;-77
2023/08/09 08:04:18;;;;;;;3.03;1.90;;;;;;;;;;4914952;29;20036;-77
2023/08/09 08:06:45;;;;;;;3.40;2.00;;;;;;;;;;4916223;29;20410;-76
2023/08/09 08:09:12;;;;;;;4.35;2.05;;;;;;;;;;4915511;29;20028;-76
2023/08/09 08:11:39;;;;;;;2.90;1.75;;;;;;;;;;4914814;29;20040;-76
2023/08/09 08:14:05;;;;;;;2.47;1.50;;;;;;;;;;4911441;29;20497;-78
2023/08/09 08:16:30;;;;;;;2.35;1.45;;;;;;;;;;4914389;29;20115;-77
2023/08/09 08:18:55;;;;;;;1.80;1.33;;;;;;;;;;4912806;29;20398;-77
2023/08/09 08:21:21;;;;;;;2.10;1.50;;;;;;;;;;4913945;29;20396;-76
2023/08/09 08:23:46;;;;;;;3.42;1.50;;;;;;;;;;4915041;29;20141;-76
2023/08/09 08:26:11;;;;;;;2.92;1.70;;;;;;;;;;4922511;29;20087;-76
2023/08/09 08:28:38;;;;;;;3.67;1.50;;;;;;;;;;4925799;29;20032;-78
2023/08/09 08:31:07;;;;;;;3.03;1.73;;;;;;;;;;4924487;29;20034;-78
2023/08/09 08:33:33;;;;;;;3.30;1.60;;;;;;;;;;4935643;29;20052;-78
2023/08/09 08:35:59;;;;;;;3.67;1.77;;;;;;;;;;4917882;29;20032;-77
2023/08/09 08:38:24;;;;;;;3.30;1.65;;;;;;;;;;4916792;29;20016;-80
2023/08/09 08:40:51;;;;;;;3.60;1.70;;;;;;;;;;4913890;29;20487;-79
2023/08/09 08:43:16;;;;;;;4.82;1.50;;;;;;;;;;4914427;29;20392;-79
2023/08/09 08:45:47;;;;;;;2.58;1.38;;;;;;;;;;4915149;29;20481;-78
2023/08/09 08:48:12;;;;;;;1.55;1.10;;;;;;;;;;4915261;29;20508;-77
2023/08/09 08:50:39;;;;;;;2.15;1.20;;;;;;;;;;4914651;29;20032;-77
2023/08/09 08:53:04;;;;;;;1.67;1.08;;;;;;;;;;4918296;29;20126;-78
2023/08/09 08:55:30;;;;;;;1.85;0.90;;;;;;;;;;4918198;29;20228;-78
2023/08/09 08:57:56;;;;;;;2.75;0.90;;;;;;;;;;4920223;29;20107;-78
2023/08/09 09:00:23;;;;;;;1.42;0.90;;;;;;;;;;4915434;29;20043;-77
2023/08/09 09:02:49;;;;;;;2.25;1.00;;;;;;;;;;4914090;29;20024;-77
2023/08/09 09:05:16;;;;;;;2.13;0.93;;;;;;;;;;4915285;29;20533;-78
2023/08/09 09:07:42;;;;;;;1.65;1.00;;;;;;;;;;4915209;29;20039;-78
2023/08/09 09:10:15;;;;;;;3.22;1.00;;;;;;;;;;4912832;29;20027;-78
2023/08/09 09:12:40;;;;;;;2.47;0.90;;;;;;;;;;4916288;29;20374;-79
2023/08/09 09:15:08;;;;;;;2.40;1.00;;;;;;;;;;4913029;29;20590;-79
2023/08/09 09:17:38;;;;;;;1.52;1.00;;;;;;;;;;4911713;29;20032;-79
2023/08/09 09:20:10;;;;;;;2.20;1.02;;;;;;;;;;4910862;29;20362;-78
2023/08/09 09:22:35;;;;;;;2.55;1.13;;;;;;;;;;4914410;29;20526;-78
2023/08/09 09:25:02;;;;;;;2.58;1.00;;;;;;;;;;4915246;29;20044;-78
2023/08/09 09:27:31;;;;;;;1.50;1.00;;;;;;;;;;4913641;29;20024;-78
2023/08/09 09:30:24;;;;;;;2.38;1.08;;;;;;;;;;4913788;29;20032;-78
2023/08/09 09:33:00;;;;;;;1.50;0.98;;;;;;;;;;4913490;29;20573;-77
2023/08/09 09:35:30;;;;;;;3.03;1.00;;;;;;;;;;4918408;29;20032;-78
2023/08/09 09:38:01;;;;;;;1.60;1.00;;;;;;;;;;4918369;29;20039;-77
2023/08/09 09:40:31;;;;;;;1.23;0.95;;;;;;;;;;4922550;29;20028;-77
2023/08/09 09:43:01;;;;;;;3.13;1.00;;;;;;;;;;4925711;29;20390;-78
2023/08/09 09:45:28;;;;;;;2.03;1.00;;;;;;;;;;4923288;29;20041;-78
2023/08/09 09:47:56;;;;;;;2.08;1.10;;;;;;;;;;4924316;29;20024;-78
2023/08/09 09:50:23;;;;;;;2.22;1.10;;;;;;;;;;4921505;29;20083;-78
2023/08/09 09:52:49;;;;;;;1.38;0.90;;;;;;;;;;4922264;29;20045;-79
2023/08/09 09:55:19;;;;;;;1.80;1.00;;;;;;;;;;4923171;29;20052;-78
2023/08/09 09:57:45;;;;;;;2.33;1.20;;;;;;;;;;4919674;29;20088;-78
2023/08/09 10:00:11;;;;;;;2.83;1.10;;;;;;;;;;4913484;29;20514;-78
2023/08/09 10:02:49;;;;;;;2.55;1.20;;;;;;;;;;4913286;29;20099;-79
2023/08/09 10:05:29;;;;;;;3.05;1.20;;;;;;;;;;4913642;29;20268;-78
2023/08/09 10:07:56;;;;;;;3.40;1.10;;;;;;;;;;4912476;29;20055;-78
2023/08/09 10:10:22;;;;;;;3.08;1.10;;;;;;;;;;4913361;29;20020;-78
2023/08/09 10:12:52;;;;;;;2.47;1.08;;;;;;;;;;4913632;29;20031;-78
2023/08/09 10:15:27;;;;;;;1.75;1.08;;;;;;;;;;4911822;29;20119;-78
2023/08/09 10:18:01;;;;;;;;;;;;;;;;;;4912992;29;20024;-78
2023/08/09 10:20:27;;;;;;;3.30;1.23;;;;;;;;;;4911359;29;20385;-78
2023/08/09 10:22:56;;;;;;;1.88;1.00;;;;;;;;;;4909622;29;20024;-78
2023/08/09 10:25:41;;;;;;;2.03;1.10;;;;;;;;;;4913007;29;20028;-79
2023/08/09 10:28:07;;;;;;;2.22;1.10;;;;;;;;;;4912091;29;20080;-79
2023/08/09 10:30:54;;;;;;;3.15;1.15;;;;;;;;;;4912463;29;20035;-78
2023/08/09 10:33:19;;;;;;;1.90;1.10;;;;;;;;;;4910076;29;20128;-78
2023/08/09 10:35:50;;;;;;;2.00;1.10;;;;;;;;;;4910399;29;20119;-78
2023/08/09 10:38:21;;;;;;;3.42;1.30;;;;;;;;;;4909394;29;20465;-78
2023/08/09 10:40:51;;;;;;;2.58;1.20;;;;;;;;;;4912846;29;20028;-80
2023/08/09 10:43:20;;;;;;;1.83;1.20;;;;;;;;;;4914034;29;20039;-78
2023/08/09 10:45:46;;;;;;;2.60;1.20;;;;;;;;;;4911781;29;20032;-80
2023/08/09 10:48:26;;;;;;;3.10;1.38;;;;;;;;;;4913521;29;20051;-79
2023/08/09 10:51:07;;;;;;;4.15;1.20;;;;;;;;;;4910682;29;20437;-80
2023/08/09 10:53:58;;;;;;;2.20;1.40;;;;;;;;;;4919392;29;20055;-80
2023/08/09 10:56:30;;;;;;;2.05;1.30;;;;;;;;;;4916318;29;20020;-79
2023/08/09 10:58:55;;;;;;;3.10;1.40;;;;;;;;;;4913051;29;20155;-81
2023/08/09 11:01:25;;;;;;;2.72;1.40;;;;;;;;;;4913108;29;20458;-80
2023/08/09 11:03:53;;;;;;;2.08;1.30;;;;;;;;;;4913496;29;20087;-80
2023/08/09 11:06:34;;;;;;;2.20;1.38;;;;;;;;;;4912437;29;20043;-78
2023/08/09 11:09:10;;;;;;;2.90;1.42;;;;;;;;;;4916446;29;20070;-77
2023/08/09 11:11:36;;;;;;;3.40;1.30;;;;;;;;;;4909183;29;20151;-77
2023/08/09 11:14:03;;;;;;;3.58;1.60;;;;;;;;;;4917254;29;20020;-77
2023/08/09 11:16:29;;;;;;;2.20;1.40;;;;;;;;;;4912194;29;20135;-77
2023/08/09 11:19:04;;;;;;;2.08;1.30;;;;;;;;;;4913222;29;20024;-79
2023/08/09 11:21:41;;;;;;;2.30;1.30;;;;;;;;;;4904962;29;20031;-80
2023/08/09 11:24:11;;;;;;;3.75;1.30;;;;;;;;;;4913000;29;20047;-79
2023/08/09 11:26:55;;;;;;;2.80;1.50;;;;;;;;;;4912212;29;20025;-79
2023/08/09 11:29:22;;;;;;;2.60;1.30;;;;;;;;;;4912891;29;20203;-80
2023/08/09 11:31:53;;;;;;;2.40;1.50;;;;;;;;;;4910944;29;20040;-80
2023/08/09 11:34:20;;;;;;;2.50;1.40;;;;;;;;;;4911615;29;20048;-80
2023/08/09 11:36:48;;;;;;;3.03;1.42;;;;;;;;;;4910967;29;20032;-80
2023/08/09 11:39:14;;;;;;;2.60;1.45;;;;;;;;;;4915099;29;20054;-78
2023/08/09 11:41:53;;;;;;;3.80;1.50;;;;;;;;;;4916407;29;20028;-79
2023/08/09 11:44:34;;;;;;;3.25;1.52;;;;;;;;;;4906938;29;20048;-82
2023/08/09 11:47:01;;;;;;;4.28;1.60;;;;;;;;;;4919751;29;20074;-79
2023/08/09 11:49:31;;;;;;;3.13;1.60;;;;;;;;;;4926116;29;20047;-80
2023/08/09 11:51:57;;;;;;;2.63;1.60;;;;;;;;;;4925462;29;20032;-81
2023/08/09 11:54:23;;;;;;;2.60;1.65;;;;;;;;;;4926723;29;20371;-82
2023/08/09 11:56:49;;;;;;;2.88;1.60;;;;;;;;;;4938831;29;20020;-81
2023/08/09 11:59:19;;;;;;;3.17;1.60;;;;;;;;;;4928305;29;20511;-81
2023/08/09 12:01:47;;;;;;;3.28;1.70;;;;;;;;;;4916740;29;20024;-80
2023/08/09 12:04:20;;;;;;;3.58;1.65;;;;;;;;;;4916592;29;20102;-80
2023/08/09 12:06:56;;;;;;;2.88;1.73;;;;;;;;;;4916022;29;20028;-80
2023/08/09 12:09:34;;;;;;;4.32;1.70;;;;;;;;;;4915274;29;20027;-81
2023/08/09 12:12:02;;;;;;;4.22;1.60;;;;;;;;;;4915669;29;20392;-79
2023/08/09 12:14:28;;;;;;;4.38;1.65;;;;;;;;;;4915528;29;20031;-79
2023/08/09 12:16:53;;;;;;;5.15;1.70;;;;;;;;;;4915032;29;20028;-77
2023/08/09 12:19:19;;;;;;;3.05;1.60;;;;;;;;;;4917619;29;20351;-80
2023/08/09 12:21:44;;;;;;;4.72;1.80;;;;;;;;;;4918559;29;20129;-79
2023/08/09 12:24:09;;;;;;;5.03;1.60;;;;;;;;;;4923372;29;20343;-79
2023/08/09 12:26:35;;;;;;;2.70;1.48;;;;;;;;;;4923499;29;20030;-80
2023/08/09 12:29:00;;;;;;;2.42;1.50;;;;;;;;;;4925906;29;20071;-79
2023/08/09 12:31:26;;;;;;;2.50;1.60;;;;;;;;;;4917814;29;20032;-78
2023/08/09 12:33:52;;;;;;;2.55;1.67;;;;;;;;;;4917828;29;20072;-77
2023/08/09 12:36:18;;;;;;;3.92;1.80;;;;;;;;;;4922513;29;20516;-79
2023/08/09 12:38:43;;;;;;;2.88;1.67;;;;;;;;;;4922440;29;20024;-80
2023/08/09 12:41:09;;;;;;;3.30;1.60;;;;;;;;;;4924368;29;20032;-80
2023/08/09 12:43:35;;;;;;;4.03;1.80;;;;;;;;;;4914744;29;20103;-80
2023/08/09 12:46:00;;;;;;;4.88;1.80;;;;;;;;;;4920862;29;20024;-80
2023/08/09 12:48:25;;;;;;;3.20;1.75;;;;;;;;;;4922806;29;20028;-80
2023/08/09 12:50:51;;;;;;;3.10;1.60;;;;;;;;;;4925795;29;20079;-80
2023/08/09 12:53:16;;;;;;;3.22;1.65;;;;;;;;;;4920736;29;20249;-79
2023/08/09 12:55:41;;;;;;;5.45;1.83;;;;;;;;;;4925096;29;20028;-77
2023/08/09 12:58:07;;;;;;;3.08;1.60;;;;;;;;;;4924973;29;20039;-80
2023/08/09 13:00:33;;;;;;;2.92;1.70;;;;;;;;;;4912372;29;20032;-80
2023/08/09 13:02:58;;;;;;;2.90;1.70;;;;;;;;;;4915155;29;20054;-79
2023/08/09 13:05:24;;;;;;;3.25;1.88;;;;;;;;;;4924817;29;20036;-80
2023/08/09 13:07:49;;;;;;;4.95;1.80;;;;;;;;;;4924336;29;20100;-79
2023/08/09 13:10:15;;;;;;;4.40;1.70;;;;;;;;;;4924180;29;20217;-79
2023/08/09 13:12:40;;;;;;;3.50;1.70;;;;;;;;;;4922126;29;20036;-79
2023/08/09 13:15:06;;;;;;;2.47;1.60;;;;;;;;;;4920872;29;20278;-80
2023/08/09 13:17:31;;;;;;;2.63;1.60;;;;;;;;;;4920735;29;20148;-80
2023/08/09 13:19:57;;;;;;;2.75;1.80;;;;;;;;;;4916684;29;20330;-80
2023/08/09 13:22:22;;;;;;;3.40;1.90;;;;;;;;;;4924411;29;20035;-80
2023/08/09 13:24:47;;;;;;;5.32;1.90;;;;;;;;;;4924448;29;20028;-79
2023/08/09 13:27:13;;;;;;;3.72;1.88;;;;;;;;;;4916907;29;20039;-79
2023/08/09 13:29:39;;;;;;;2.60;1.80;;;;;;;;;;4921471;29;20032;-80
2023/08/09 13:32:05;;;;;;;4.95;2.10;;;;;;;;;;4915032;29;20221;-80
2023/08/09 13:34:30;;;;;;;4.18;2.00;;;;;;;;;;4921305;29;20161;-79
2023/08/09 13:36:56;;;;;;;3.78;1.92;;;;;;;;;;4922674;29;20088;-78
2023/08/09 13:39:21;;;;;;;4.18;1.90;;;;;;;;;;4923776;29;20059;-78
2023/08/09 13:41:46;;;;;;;3.72;1.80;;;;;;;;;;4923792;29;20020;-86
2023/08/09 13:44:13;;;;;;;4.82;2.00;;;;;;;;;;4920811;29;20075;-83
2023/08/09 13:46:39;;;;;;;3.35;1.95;;;;;;;;;;4921350;29;20031;-82
2023/08/09 13:49:05;;;;;;;3.25;1.90;;;;;;;;;;4917949;29;20036;-81
2023/08/09 13:51:30;;;;;;;4.43;2.05;;;;;;;;;;4912316;29;20048;-81
2023/08/09 13:53:56;;;;;;;3.30;1.90;;;;;;;;;;4920302;29;20144;-81
2023/08/09 13:56:21;;;;;;;4.00;1.80;;;;;;;;;;4939773;29;20031;-80
2023/08/09 13:58:47;;;;;;;4.25;1.90;;;;;;;;;;4908553;29;20091;-81
2023/08/09 14:01:12;;;;;;;5.45;2.10;;;;;;;;;;4923622;29;20031;-80
2023/08/09 14:03:37;;;;;;;3.92;1.90;;;;;;;;;;4924090;29;20103;-82
2023/08/09 14:06:03;;;;;;;2.70;1.90;;;;;;;;;;4918554;29;20232;-81
2023/08/09 14:08:28;;;;;;;3.28;2.00;;;;;;;;;;4923147;29;20091;-81
2023/08/09 14:10:54;;;;;;;4.72;2.20;;;;;;;;;;4923796;29;20043;-81
2023/08/09 14:13:19;;;;;;;2.95;2.00;;;;;;;;;;4923985;29;20028;-81
2023/08/09 14:15:44;;;;;;;4.47;2.00;;;;;;;;;;4923162;29;20304;-81
2023/08/09 14:18:10;;;;;;;5.53;1.90;;;;;;;;;;4922417;29;20639;-82
2023/08/09 14:20:36;;;;;;;3.85;1.80;;;;;;;;;;4921819;29;20228;-81
2023/08/09 14:23:02;;;;;;;4.43;2.20;;;;;;;;;;4923743;29;20024;-81
2023/08/09 14:25:27;;;;;;;3.65;2.00;;;;;;;;;;4923837;29;20036;-80
2023/08/09 14:27:53;;;;;;;3.67;2.08;;;;;;;;;;4921223;29;20052;-81
2023/08/09 14:30:19;;;;;;;3.63;1.98;;;;;;;;;;4923024;29;20099;-82
2023/08/09 14:32:45;;;;;;;3.70;2.20;;;;;;;;;;4923432;29;20024;-81
2023/08/09 14:35:11;;;;;;;4.00;2.10;;;;;;;;;;4920483;29;20078;-81
2023/08/09 14:37:37;;;;;;;5.72;2.30;;;;;;;;;;4939251;29;20024;-81
2023/08/09 14:40:06;;;;;;;4.90;2.20;;;;;;;;;;4928482;29;20023;-81
2023/08/09 14:42:33;;;;;;;2.90;1.80;;;;;;;;;;4927296;29;20047;-81